Herstmonceux, United Kingdom
Current Conditions -  °F | °C
As of 4:20 PM on Thursday 30 Oct 2014 (Local Time) from EGKA Reporting Station
Clear Clear  
Wind Chill: 59°   Ceiling: Unl
Heat Index: 59°   Visibility: 4mi
Dew Point: 57°   Wind: 5mph
Humidity: 94%   Direction: 130°SE
Pressure: 30.06"   Gusts: NA
Location:  50.89°N, 0.32°E
Report Text: EGKA 301620Z 13004KT 6000 NSC 15/14 Q1018
Loading
Personal Weather Stations






























Interactive Weather Map
Tropical Storm Tracking
New forecast layout! Learn more

10-Day Weather Forecast

Advertisements
Track Severe Weather on mobile